sensor_id;sensor_type;location;lat;lon;timestamp;pressure;altitude;pressure_sealevel;temperature;humidity
31062;BME280;17724;53.546;9.974;2022-10-31T00:01:51;101865.97;;;15.71;100.00
31062;BME280;17724;53.546;9.974;2022-10-31T00:05:51;101868.50;;;15.73;100.00
31062;BME280;17724;53.546;9.974;2022-10-31T00:09:52;101865.97;;;15.71;100.00
31062;BME280;17724;53.546;9.974;2022-10-31T00:13:52;101865.63;;;15.63;100.00
31062;BME280;17724;53.546;9.974;2022-10-31T00:17:53;101874.56;;;15.65;100.00
31062;BME280;17724;53.546;9.974;2022-10-31T00:21:53;101880.09;;;15.65;100.00
31062;BME280;17724;53.546;9.974;2022-10-31T00:25:54;101879.47;;;15.63;100.00
31062;BME280;17724;53.546;9.974;2022-10-31T00:29:54;101880.47;;;15.46;100.00
31062;BME280;17724;53.546;9.974;2022-10-31T00:33:55;101887.03;;;15.35;100.00
31062;BME280;17724;53.546;9.974;2022-10-31T00:37:55;101884.69;;;15.54;100.00
31062;BME280;17724;53.546;9.974;2022-10-31T00:41:56;101875.81;;;15.52;100.00
31062;BME280;17724;53.546;9.974;2022-10-31T00:45:56;101859.06;;;15.74;100.00
31062;BME280;17724;53.546;9.974;2022-10-31T00:49:56;101858.56;;;15.82;100.00
31062;BME280;17724;53.546;9.974;2022-10-31T00:53:57;101869.97;;;15.86;100.00
31062;BME280;17724;53.546;9.974;2022-10-31T00:57:57;101877.53;;;15.63;100.00
31062;BME280;17724;53.546;9.974;2022-10-31T01:01:57;101884.03;;;15.74;100.00
31062;BME280;17724;53.546;9.974;2022-10-31T01:06:18;101892.66;;;15.77;100.00
31062;BME280;17724;53.546;9.974;2022-10-31T01:10:18;101892.31;;;15.69;100.00
31062;BME280;17724;53.546;9.974;2022-10-31T01:14:19;101902.19;;;15.60;100.00
31062;BME280;17724;53.546;9.974;2022-10-31T01:18:19;101911.91;;;15.57;100.00
31062;BME280;17724;53.546;9.974;2022-10-31T01:22:19;101910.50;;;15.60;100.00
31062;BME280;17724;53.546;9.974;2022-10-31T01:26:28;101918.66;;;15.39;100.00
31062;BME280;17724;53.546;9.974;2022-10-31T01:30:29;101929.44;;;15.36;100.00
31062;BME280;17724;53.546;9.974;2022-10-31T01:34:30;101926.25;;;15.49;100.00
31062;BME280;17724;53.546;9.974;2022-10-31T01:38:30;101927.56;;;15.41;100.00
31062;BME280;17724;53.546;9.974;2022-10-31T01:42:30;101920.41;;;15.50;100.00
31062;BME280;17724;53.546;9.974;2022-10-31T01:46:37;101927.63;;;15.51;100.00
31062;BME280;17724;53.546;9.974;2022-10-31T01:50:39;101921.38;;;15.34;100.00
31062;BME280;17724;53.546;9.974;2022-10-31T01:54:45;101937.22;;;15.39;100.00
31062;BME280;17724;53.546;9.974;2022-10-31T01:58:48;101939.69;;;15.35;100.00
31062;BME280;17724;53.546;9.974;2022-10-31T02:02:49;101937.03;;;15.45;100.00
31062;BME280;17724;53.546;9.974;2022-10-31T02:07:16;101946.16;;;15.46;100.00
31062;BME280;17724;53.546;9.974;2022-10-31T02:11:15;101932.81;;;15.43;100.00
31062;BME280;17724;53.546;9.974;2022-10-31T02:15:16;101946.16;;;15.46;100.00
31062;BME280;17724;53.546;9.974;2022-10-31T02:19:46;101942.28;;;15.47;100.00
31062;BME280;17724;53.546;9.974;2022-10-31T02:24:00;101950.88;;;15.45;100.00
31062;BME280;17724;53.546;9.974;2022-10-31T02:28:19;101955.94;;;15.53;100.00
31062;BME280;17724;53.546;9.974;2022-10-31T02:37:27;101966.38;;;15.41;100.00
31062;BME280;17724;53.546;9.974;2022-10-31T02:45:35;101963.56;;;15.36;100.00
31062;BME280;17724;53.546;9.974;2022-10-31T02:49:59;101975.97;;;15.07;100.00
31062;BME280;17724;53.546;9.974;2022-10-31T02:54:01;101980.03;;;14.99;100.00
31062;BME280;17724;53.546;9.974;2022-10-31T02:58:08;101972.41;;;15.11;100.00
31062;BME280;17724;53.546;9.974;2022-10-31T03:11:12;101975.53;;;14.71;100.00
31062;BME280;17724;53.546;9.974;2022-10-31T03:15:19;101970.16;;;14.81;100.00
31062;BME280;17724;53.546;9.974;2022-10-31T03:19:33;101989.09;;;14.89;100.00
31062;BME280;17724;53.546;9.974;2022-10-31T03:23:35;101993.25;;;14.92;100.00
31062;BME280;17724;53.546;9.974;2022-10-31T03:27:39;101993.53;;;14.68;100.00
31062;BME280;17724;53.546;9.974;2022-10-31T03:31:48;102000.59;;;14.59;100.00
31062;BME280;17724;53.546;9.974;2022-10-31T03:35:52;102002.97;;;14.50;100.00
31062;BME280;17724;53.546;9.974;2022-10-31T03:39:55;102007.50;;;14.57;100.00
31062;BME280;17724;53.546;9.974;2022-10-31T03:44:00;102014.88;;;14.51;100.00
31062;BME280;17724;53.546;9.974;2022-10-31T03:48:02;102011.16;;;14.62;100.00
31062;BME280;17724;53.546;9.974;2022-10-31T03:52:07;102022.38;;;14.72;100.00
31062;BME280;17724;53.546;9.974;2022-10-31T04:00:24;102039.00;;;14.72;100.00
31062;BME280;17724;53.546;9.974;2022-10-31T04:04:26;102028.88;;;14.61;100.00
31062;BME280;17724;53.546;9.974;2022-10-31T04:08:30;102038.06;;;14.67;100.00
31062;BME280;17724;53.546;9.974;2022-10-31T04:12:32;102047.03;;;14.74;100.00
31062;BME280;17724;53.546;9.974;2022-10-31T04:16:34;102053.25;;;14.81;100.00
31062;BME280;17724;53.546;9.974;2022-10-31T04:20:37;102057.50;;;14.89;100.00
31062;BME280;17724;53.546;9.974;2022-10-31T04:24:39;102062.75;;;14.90;100.00
31062;BME280;17724;53.546;9.974;2022-10-31T04:28:40;102052.78;;;14.89;100.00
31062;BME280;17724;53.546;9.974;2022-10-31T04:32:40;102053.94;;;14.93;100.00
31062;BME280;17724;53.546;9.974;2022-10-31T04:36:40;102052.31;;;14.75;100.00
31062;BME280;17724;53.546;9.974;2022-10-31T04:40:41;102057.81;;;14.92;100.00
31062;BME280;17724;53.546;9.974;2022-10-31T04:44:41;102061.97;;;14.73;100.00
31062;BME280;17724;53.546;9.974;2022-10-31T04:48:41;102054.22;;;14.53;100.00
31062;BME280;17724;53.546;9.974;2022-10-31T04:52:43;102059.22;;;14.56;100.00
31062;BME280;17724;53.546;9.974;2022-10-31T04:56:44;102061.66;;;14.36;100.00
31062;BME280;17724;53.546;9.974;2022-10-31T05:00:44;102064.75;;;14.56;100.00
31062;BME280;17724;53.546;9.974;2022-10-31T05:04:44;102072.72;;;14.69;100.00
31062;BME280;17724;53.546;9.974;2022-10-31T05:08:45;102064.53;;;14.58;100.00
31062;BME280;17724;53.546;9.974;2022-10-31T05:12:59;102061.50;;;14.59;100.00
31062;BME280;17724;53.546;9.974;2022-10-31T05:16:59;102065.38;;;14.58;100.00
31062;BME280;17724;53.546;9.974;2022-10-31T05:21:00;102075.59;;;14.41;100.00
31062;BME280;17724;53.546;9.974;2022-10-31T05:25:00;102063.81;;;14.67;100.00
31062;BME280;17724;53.546;9.974;2022-10-31T05:29:00;102068.09;;;14.75;100.00
31062;BME280;17724;53.546;9.974;2022-10-31T05:33:01;102077.06;;;14.82;100.00
31062;BME280;17724;53.546;9.974;2022-10-31T05:37:01;102069.25;;;14.79;100.00
31062;BME280;17724;53.546;9.974;2022-10-31T05:41:01;102068.34;;;14.73;100.00
31062;BME280;17724;53.546;9.974;2022-10-31T05:45:02;102066.75;;;14.77;100.00
31062;BME280;17724;53.546;9.974;2022-10-31T05:49:02;102067.16;;;14.86;100.00
31062;BME280;17724;53.546;9.974;2022-10-31T05:53:04;102071.53;;;14.82;100.00
31062;BME280;17724;53.546;9.974;2022-10-31T05:57:05;102079.91;;;14.87;100.00
31062;BME280;17724;53.546;9.974;2022-10-31T06:01:05;102065.16;;;14.82;100.00
31062;BME280;17724;53.546;9.974;2022-10-31T06:05:06;102076.41;;;14.75;100.00
31062;BME280;17724;53.546;9.974;2022-10-31T06:09:06;102083.31;;;14.72;100.00
31062;BME280;17724;53.546;9.974;2022-10-31T06:13:07;102063.25;;;14.48;100.00
31062;BME280;17724;53.546;9.974;2022-10-31T06:17:07;102082.56;;;14.60;100.00
31062;BME280;17724;53.546;9.974;2022-10-31T06:21:07;102098.00;;;14.56;100.00
31062;BME280;17724;53.546;9.974;2022-10-31T06:25:08;102094.66;;;14.54;100.00
31062;BME280;17724;53.546;9.974;2022-10-31T06:29:08;102091.09;;;14.42;100.00
31062;BME280;17724;53.546;9.974;2022-10-31T06:33:09;102094.31;;;14.50;100.00
31062;BME280;17724;53.546;9.974;2022-10-31T06:37:11;102087.31;;;14.48;100.00
31062;BME280;17724;53.546;9.974;2022-10-31T06:41:11;102112.84;;;14.50;100.00
31062;BME280;17724;53.546;9.974;2022-10-31T06:45:12;102115.53;;;14.62;100.00
31062;BME280;17724;53.546;9.974;2022-10-31T06:49:12;102117.38;;;14.56;100.00
31062;BME280;17724;53.546;9.974;2022-10-31T06:53:13;102129.81;;;14.53;100.00
31062;BME280;17724;53.546;9.974;2022-10-31T06:57:17;102132.09;;;14.28;100.00
31062;BME280;17724;53.546;9.974;2022-10-31T07:01:17;102133.69;;;14.52;100.00
31062;BME280;17724;53.546;9.974;2022-10-31T07:05:17;102137.66;;;14.45;100.00
31062;BME280;17724;53.546;9.974;2022-10-31T07:09:17;102155.69;;;14.30;100.00
31062;BME280;17724;53.546;9.974;2022-10-31T07:13:18;102147.97;;;14.33;100.00
31062;BME280;17724;53.546;9.974;2022-10-31T07:17:18;102150.06;;;14.25;100.00
31062;BME280;17724;53.546;9.974;2022-10-31T07:21:18;102153.19;;;14.29;100.00
31062;BME280;17724;53.546;9.974;2022-10-31T07:25:19;102161.84;;;14.04;100.00
31062;BME280;17724;53.546;9.974;2022-10-31T07:29:20;102159.81;;;13.99;100.00
31062;BME280;17724;53.546;9.974;2022-10-31T07:33:21;102167.06;;;14.17;100.00
31062;BME280;17724;53.546;9.974;2022-10-31T07:37:21;102166.84;;;13.90;100.00
31062;BME280;17724;53.546;9.974;2022-10-31T07:41:22;102164.28;;;14.00;100.00
31062;BME280;17724;53.546;9.974;2022-10-31T07:45:22;102173.44;;;14.18;100.00
31062;BME280;17724;53.546;9.974;2022-10-31T07:49:22;102182.00;;;14.16;100.00
31062;BME280;17724;53.546;9.974;2022-10-31T07:53:25;102187.53;;;14.16;100.00
31062;BME280;17724;53.546;9.974;2022-10-31T07:57:25;102173.78;;;14.21;100.00
31062;BME280;17724;53.546;9.974;2022-10-31T08:01:26;102172.41;;;14.07;100.00
31062;BME280;17724;53.546;9.974;2022-10-31T08:05:26;102167.63;;;14.02;100.00
31062;BME280;17724;53.546;9.974;2022-10-31T08:09:27;102171.84;;;14.05;100.00
31062;BME280;17724;53.546;9.974;2022-10-31T08:13:27;102175.38;;;14.17;100.00
31062;BME280;17724;53.546;9.974;2022-10-31T08:17:28;102163.66;;;14.44;100.00
31062;BME280;17724;53.546;9.974;2022-10-31T08:21:29;102167.94;;;14.35;100.00
31062;BME280;17724;53.546;9.974;2022-10-31T08:25:32;102165.91;;;14.30;100.00
31062;BME280;17724;53.546;9.974;2022-10-31T08:29:33;102161.72;;;14.27;100.00
31062;BME280;17724;53.546;9.974;2022-10-31T08:33:35;102181.28;;;14.38;100.00
31062;BME280;17724;53.546;9.974;2022-10-31T08:37:35;102191.47;;;14.49;100.00
31062;BME280;17724;53.546;9.974;2022-10-31T08:41:36;102185.63;;;14.34;100.00
31062;BME280;17724;53.546;9.974;2022-10-31T08:45:36;102194.44;;;14.30;100.00
31062;BME280;17724;53.546;9.974;2022-10-31T08:49:36;102184.47;;;14.46;100.00
31062;BME280;17724;53.546;9.974;2022-10-31T08:53:37;102186.31;;;14.41;100.00
31062;BME280;17724;53.546;9.974;2022-10-31T08:57:37;102190.41;;;14.21;100.00
31062;BME280;17724;53.546;9.974;2022-10-31T09:01:38;102185.13;;;14.37;100.00
31062;BME280;17724;53.546;9.974;2022-10-31T09:05:38;102179.06;;;14.40;100.00
31062;BME280;17724;53.546;9.974;2022-10-31T09:09:42;102185.03;;;14.32;100.00
31062;BME280;17724;53.546;9.974;2022-10-31T09:13:42;102178.44;;;14.33;100.00
31062;BME280;17724;53.546;9.974;2022-10-31T09:17:47;102177.09;;;14.52;100.00
31062;BME280;17724;53.546;9.974;2022-10-31T09:21:52;102174.47;;;14.28;100.00
31062;BME280;17724;53.546;9.974;2022-10-31T09:25:53;102172.47;;;14.41;100.00
31062;BME280;17724;53.546;9.974;2022-10-31T09:29:53;102172.28;;;14.47;100.00
31062;BME280;17724;53.546;9.974;2022-10-31T09:33:54;102170.78;;;14.40;100.00
31062;BME280;17724;53.546;9.974;2022-10-31T09:37:59;102174.34;;;14.69;100.00
31062;BME280;17724;53.546;9.974;2022-10-31T09:42:08;102170.50;;;14.53;100.00
31062;BME280;17724;53.546;9.974;2022-10-31T09:46:18;102181.16;;;14.61;100.00
31062;BME280;17724;53.546;9.974;2022-10-31T09:50:36;102189.03;;;14.86;100.00
31062;BME280;17724;53.546;9.974;2022-10-31T09:54:44;102192.97;;;14.90;100.00
31062;BME280;17724;53.546;9.974;2022-10-31T09:58:49;102202.19;;;14.79;100.00
31062;BME280;17724;53.546;9.974;2022-10-31T10:07:05;102194.09;;;15.11;100.00
31062;BME280;17724;53.546;9.974;2022-10-31T10:11:25;102191.84;;;15.08;100.00
31062;BME280;17724;53.546;9.974;2022-10-31T10:15:41;102199.34;;;14.91;100.00
31062;BME280;17724;53.546;9.974;2022-10-31T10:20:14;102194.81;;;15.01;100.00
31062;BME280;17724;53.546;9.974;2022-10-31T10:28:35;102200.34;;;15.01;100.00
31062;BME280;17724;53.546;9.974;2022-10-31T10:32:51;102194.72;;;14.96;100.00
31062;BME280;17724;53.546;9.974;2022-10-31T10:37:01;102185.75;;;14.89;100.00
31062;BME280;17724;53.546;9.974;2022-10-31T10:41:08;102178.38;;;14.78;100.00
31062;BME280;17724;53.546;9.974;2022-10-31T10:45:16;102180.53;;;14.93;100.00
31062;BME280;17724;53.546;9.974;2022-10-31T10:49:44;102166.44;;;14.94;100.00
31062;BME280;17724;53.546;9.974;2022-10-31T10:54:10;102169.25;;;14.99;100.00
31062;BME280;17724;53.546;9.974;2022-10-31T10:58:14;102166.00;;;15.02;100.00
31062;BME280;17724;53.546;9.974;2022-10-31T11:02:23;102159.16;;;15.10;100.00
31062;BME280;17724;53.546;9.974;2022-10-31T11:06:24;102165.81;;;15.09;100.00
31062;BME280;17724;53.546;9.974;2022-10-31T11:10:28;102158.72;;;15.18;100.00
31062;BME280;17724;53.546;9.974;2022-10-31T11:14:29;102152.13;;;15.02;100.00
31062;BME280;17724;53.546;9.974;2022-10-31T11:18:32;102154.66;;;15.04;100.00
31062;BME280;17724;53.546;9.974;2022-10-31T11:22:34;102148.75;;;15.17;100.00
31062;BME280;17724;53.546;9.974;2022-10-31T11:26:34;102134.75;;;15.07;100.00
31062;BME280;17724;53.546;9.974;2022-10-31T11:30:52;102137.16;;;15.20;100.00
31062;BME280;17724;53.546;9.974;2022-10-31T11:35:00;102143.88;;;14.86;100.00
31062;BME280;17724;53.546;9.974;2022-10-31T11:39:02;102143.25;;;15.00;100.00
31062;BME280;17724;53.546;9.974;2022-10-31T11:43:03;102153.38;;;14.73;100.00
31062;BME280;17724;53.546;9.974;2022-10-31T11:47:04;102152.53;;;14.56;100.00
31062;BME280;17724;53.546;9.974;2022-10-31T11:51:06;102149.00;;;14.77;100.00
31062;BME280;17724;53.546;9.974;2022-10-31T11:59:31;102125.91;;;15.10;100.00
31062;BME280;17724;53.546;9.974;2022-10-31T12:07:31;102123.66;;;15.07;100.00
31062;BME280;17724;53.546;9.974;2022-10-31T12:11:43;102118.47;;;15.33;100.00
31062;BME280;17724;53.546;9.974;2022-10-31T12:15:55;102114.13;;;15.20;100.00
31062;BME280;17724;53.546;9.974;2022-10-31T12:45:46;102116.84;;;15.15;99.96
31062;BME280;17724;53.546;9.974;2022-10-31T12:54:33;102091.50;;;15.06;99.92
31062;BME280;17724;53.546;9.974;2022-10-31T12:59:38;102102.03;;;15.26;99.57
31062;BME280;17724;53.546;9.974;2022-10-31T13:03:23;102085.56;;;15.19;98.35
31062;BME280;17724;53.546;9.974;2022-10-31T13:07:30;102080.13;;;15.24;98.39
31062;BME280;17724;53.546;9.974;2022-10-31T13:11:42;102079.16;;;15.14;98.39
31062;BME280;17724;53.546;9.974;2022-10-31T13:15:54;102082.16;;;14.90;98.92
31062;BME280;17724;53.546;9.974;2022-10-31T13:24:16;102074.09;;;15.11;98.72
31062;BME280;17724;53.546;9.974;2022-10-31T13:28:37;102069.78;;;14.98;98.51
31062;BME280;17724;53.546;9.974;2022-10-31T13:41:27;102042.25;;;15.35;98.23
31062;BME280;17724;53.546;9.974;2022-10-31T13:45:31;102034.00;;;15.67;97.28
31062;BME280;17724;53.546;9.974;2022-10-31T13:49:38;102027.72;;;15.50;96.88
31062;BME280;17724;53.546;9.974;2022-10-31T13:57:59;102018.09;;;15.31;96.95
31062;BME280;17724;53.546;9.974;2022-10-31T14:02:02;102015.06;;;15.32;97.13
31062;BME280;17724;53.546;9.974;2022-10-31T14:06:14;102011.16;;;15.28;96.88
31062;BME280;17724;53.546;9.974;2022-10-31T14:10:55;101999.50;;;15.31;97.17
31062;BME280;17724;53.546;9.974;2022-10-31T14:14:59;101986.97;;;15.50;96.44
31062;BME280;17724;53.546;9.974;2022-10-31T14:19:07;101974.72;;;15.46;96.33
31062;BME280;17724;53.546;9.974;2022-10-31T14:27:34;101975.31;;;15.48;95.80
31062;BME280;17724;53.546;9.974;2022-10-31T14:31:38;101971.09;;;15.41;96.55
31062;BME280;17724;53.546;9.974;2022-10-31T14:35:51;101967.56;;;15.23;97.20
31062;BME280;17724;53.546;9.974;2022-10-31T14:44:46;101938.94;;;15.13;98.18
31062;BME280;17724;53.546;9.974;2022-10-31T14:53:54;101951.94;;;15.12;98.83
31062;BME280;17724;53.546;9.974;2022-10-31T14:58:06;101948.59;;;15.10;98.68
31062;BME280;17724;53.546;9.974;2022-10-31T15:02:18;101944.81;;;15.21;98.05
31062;BME280;17724;53.546;9.974;2022-10-31T15:06:21;101953.19;;;15.26;97.18
31062;BME280;17724;53.546;9.974;2022-10-31T15:10:28;101928.69;;;15.13;97.22
31062;BME280;17724;53.546;9.974;2022-10-31T15:14:33;101924.78;;;15.14;97.13
31062;BME280;17724;53.546;9.974;2022-10-31T15:18:33;101920.38;;;15.13;96.06
31062;BME280;17724;53.546;9.974;2022-10-31T15:22:34;101932.59;;;15.17;96.60
31062;BME280;17724;53.546;9.974;2022-10-31T15:26:39;101937.50;;;15.10;96.51
31062;BME280;17724;53.546;9.974;2022-10-31T15:30:50;101917.16;;;14.99;97.16
31062;BME280;17724;53.546;9.974;2022-10-31T15:34:52;101909.22;;;14.81;98.37
31062;BME280;17724;53.546;9.974;2022-10-31T15:38:55;101907.00;;;14.83;98.90
31062;BME280;17724;53.546;9.974;2022-10-31T15:43:03;101899.66;;;14.94;98.42
31062;BME280;17724;53.546;9.974;2022-10-31T15:47:07;101881.00;;;14.84;98.62
31062;BME280;17724;53.546;9.974;2022-10-31T15:51:14;101873.25;;;14.86;98.61
31062;BME280;17724;53.546;9.974;2022-10-31T15:55:48;101864.59;;;14.77;99.16
31062;BME280;17724;53.546;9.974;2022-10-31T15:59:51;101879.59;;;14.82;99.07
31062;BME280;17724;53.546;9.974;2022-10-31T16:08:02;101866.72;;;14.48;100.00
31062;BME280;17724;53.546;9.974;2022-10-31T16:12:03;101860.88;;;14.45;100.00
31062;BME280;17724;53.546;9.974;2022-10-31T16:16:12;101875.16;;;14.59;100.00
31062;BME280;17724;53.546;9.974;2022-10-31T16:20:25;101877.00;;;14.31;100.00
31062;BME280;17724;53.546;9.974;2022-10-31T16:24:32;101884.66;;;14.24;100.00
31062;BME280;17724;53.546;9.974;2022-10-31T16:28:34;101881.44;;;14.10;100.00
31062;BME280;17724;53.546;9.974;2022-10-31T16:32:52;101873.72;;;14.12;100.00
31062;BME280;17724;53.546;9.974;2022-10-31T16:36:53;101866.06;;;13.97;100.00
31062;BME280;17724;53.546;9.974;2022-10-31T16:40:54;101870.34;;;13.88;100.00
31062;BME280;17724;53.546;9.974;2022-10-31T16:44:54;101877.88;;;13.93;100.00
31062;BME280;17724;53.546;9.974;2022-10-31T16:48:55;101880.56;;;13.88;100.00
31062;BME280;17724;53.546;9.974;2022-10-31T16:52:55;101869.50;;;13.88;100.00
31062;BME280;17724;53.546;9.974;2022-10-31T16:56:58;101865.88;;;13.65;100.00
31062;BME280;17724;53.546;9.974;2022-10-31T17:01:01;101873.97;;;13.72;100.00
31062;BME280;17724;53.546;9.974;2022-10-31T17:05:02;101870.53;;;13.82;100.00
31062;BME280;17724;53.546;9.974;2022-10-31T17:09:02;101871.59;;;13.97;100.00
31062;BME280;17724;53.546;9.974;2022-10-31T17:13:03;101873.31;;;13.82;100.00
31062;BME280;17724;53.546;9.974;2022-10-31T17:17:05;101883.94;;;13.90;100.00
31062;BME280;17724;53.546;9.974;2022-10-31T17:21:06;101876.31;;;13.80;100.00
31062;BME280;17724;53.546;9.974;2022-10-31T17:25:10;101867.06;;;13.91;100.00
31062;BME280;17724;53.546;9.974;2022-10-31T17:29:13;101860.25;;;13.99;100.00
31062;BME280;17724;53.546;9.974;2022-10-31T17:33:15;101854.34;;;14.12;100.00
31062;BME280;17724;53.546;9.974;2022-10-31T17:37:16;101834.94;;;14.07;100.00
31062;BME280;17724;53.546;9.974;2022-10-31T17:41:16;101843.22;;;14.07;100.00
31062;BME280;17724;53.546;9.974;2022-10-31T17:45:18;101819.94;;;14.03;100.00
31062;BME280;17724;53.546;9.974;2022-10-31T17:49:18;101830.00;;;14.09;100.00
31062;BME280;17724;53.546;9.974;2022-10-31T17:53:19;101823.69;;;14.14;100.00
31062;BME280;17724;53.546;9.974;2022-10-31T17:57:19;101804.75;;;13.84;100.00
31062;BME280;17724;53.546;9.974;2022-10-31T18:01:20;101829.97;;;13.87;100.00
31062;BME280;17724;53.546;9.974;2022-10-31T18:05:21;101838.97;;;13.77;100.00
31062;BME280;17724;53.546;9.974;2022-10-31T18:09:22;101845.44;;;13.88;100.00
31062;BME280;17724;53.546;9.974;2022-10-31T18:13:23;101837.31;;;13.98;100.00
31062;BME280;17724;53.546;9.974;2022-10-31T18:17:23;101827.25;;;13.92;100.00
31062;BME280;17724;53.546;9.974;2022-10-31T18:21:24;101827.00;;;13.94;100.00
31062;BME280;17724;53.546;9.974;2022-10-31T18:25:24;101809.00;;;13.91;100.00
31062;BME280;17724;53.546;9.974;2022-10-31T18:29:25;101803.25;;;13.76;100.00
31062;BME280;17724;53.546;9.974;2022-10-31T18:33:25;101798.59;;;13.76;100.00
31062;BME280;17724;53.546;9.974;2022-10-31T18:37:26;101799.41;;;13.77;100.00
31062;BME280;17724;53.546;9.974;2022-10-31T18:41:26;101801.25;;;13.71;100.00
31062;BME280;17724;53.546;9.974;2022-10-31T18:45:27;101807.88;;;13.70;100.00
31062;BME280;17724;53.546;9.974;2022-10-31T18:49:27;101801.19;;;13.66;100.00
31062;BME280;17724;53.546;9.974;2022-10-31T18:53:32;101801.47;;;13.65;100.00
31062;BME280;17724;53.546;9.974;2022-10-31T18:57:32;101782.72;;;13.50;100.00
31062;BME280;17724;53.546;9.974;2022-10-31T19:01:33;101777.97;;;13.67;100.00
31062;BME280;17724;53.546;9.974;2022-10-31T19:05:33;101744.13;;;13.38;100.00
31062;BME280;17724;53.546;9.974;2022-10-31T19:09:34;101787.31;;;13.61;100.00
31062;BME280;17724;53.546;9.974;2022-10-31T19:13:35;101792.06;;;13.66;100.00
31062;BME280;17724;53.546;9.974;2022-10-31T19:17:36;101788.69;;;13.80;100.00
31062;BME280;17724;53.546;9.974;2022-10-31T19:21:37;101797.28;;;13.84;100.00
31062;BME280;17724;53.546;9.974;2022-10-31T19:25:37;101813.25;;;13.77;100.00
31062;BME280;17724;53.546;9.974;2022-10-31T19:29:38;101794.88;;;13.71;100.00
31062;BME280;17724;53.546;9.974;2022-10-31T19:33:41;101786.88;;;13.69;100.00
31062;BME280;17724;53.546;9.974;2022-10-31T19:37:41;101764.81;;;13.74;100.00
31062;BME280;17724;53.546;9.974;2022-10-31T19:41:42;101761.31;;;13.62;100.00
31062;BME280;17724;53.546;9.974;2022-10-31T19:45:52;101734.91;;;13.49;100.00
31062;BME280;17724;53.546;9.974;2022-10-31T19:49:53;101716.63;;;13.48;100.00
31062;BME280;17724;53.546;9.974;2022-10-31T19:53:53;101714.78;;;13.54;100.00
31062;BME280;17724;53.546;9.974;2022-10-31T19:57:54;101711.19;;;13.53;100.00
31062;BME280;17724;53.546;9.974;2022-10-31T20:01:54;101706.31;;;13.61;100.00
31062;BME280;17724;53.546;9.974;2022-10-31T20:05:54;101686.88;;;13.55;100.00
31062;BME280;17724;53.546;9.974;2022-10-31T20:09:58;101668.75;;;13.43;100.00
31062;BME280;17724;53.546;9.974;2022-10-31T20:13:58;101675.13;;;13.43;100.00
31062;BME280;17724;53.546;9.974;2022-10-31T20:17:59;101670.25;;;13.50;100.00
31062;BME280;17724;53.546;9.974;2022-10-31T20:21:59;101674.47;;;13.36;100.00
31062;BME280;17724;53.546;9.974;2022-10-31T20:26:00;101687.53;;;13.41;100.00
31062;BME280;17724;53.546;9.974;2022-10-31T20:30:00;101675.22;;;13.31;100.00
31062;BME280;17724;53.546;9.974;2022-10-31T20:34:01;101666.94;;;13.31;100.00
31062;BME280;17724;53.546;9.974;2022-10-31T20:38:02;101677.03;;;13.43;100.00
31062;BME280;17724;53.546;9.974;2022-10-31T20:42:04;101664.06;;;13.43;100.00
31062;BME280;17724;53.546;9.974;2022-10-31T20:46:09;101656.59;;;13.44;100.00
31062;BME280;17724;53.546;9.974;2022-10-31T20:50:12;101654.06;;;13.37;100.00
31062;BME280;17724;53.546;9.974;2022-10-31T20:54:13;101643.31;;;13.41;100.00
31062;BME280;17724;53.546;9.974;2022-10-31T20:58:14;101649.34;;;13.60;100.00
31062;BME280;17724;53.546;9.974;2022-10-31T21:02:15;101641.59;;;13.57;100.00
31062;BME280;17724;53.546;9.974;2022-10-31T21:06:16;101630.91;;;13.43;100.00
31062;BME280;17724;53.546;9.974;2022-10-31T21:10:17;101620.69;;;13.44;100.00
31062;BME280;17724;53.546;9.974;2022-10-31T21:14:17;101634.19;;;13.40;100.00
31062;BME280;17724;53.546;9.974;2022-10-31T21:18:17;101626.22;;;13.44;100.00
31062;BME280;17724;53.546;9.974;2022-10-31T21:22:18;101596.53;;;13.34;100.00
31062;BME280;17724;53.546;9.974;2022-10-31T21:26:21;101598.47;;;13.34;100.00
31062;BME280;17724;53.546;9.974;2022-10-31T21:30:24;101597.38;;;13.35;100.00
31062;BME280;17724;53.546;9.974;2022-10-31T21:34:25;101586.59;;;13.33;100.00
31062;BME280;17724;53.546;9.974;2022-10-31T21:38:25;101588.69;;;13.26;100.00
31062;BME280;17724;53.546;9.974;2022-10-31T21:42:26;101586.31;;;13.35;100.00
31062;BME280;17724;53.546;9.974;2022-10-31T21:46:28;101574.38;;;13.29;100.00
31062;BME280;17724;53.546;9.974;2022-10-31T21:50:29;101569.91;;;13.50;100.00
31062;BME280;17724;53.546;9.974;2022-10-31T21:54:29;101576.09;;;13.35;100.00
31062;BME280;17724;53.546;9.974;2022-10-31T21:58:32;101575.41;;;13.23;100.00
31062;BME280;17724;53.546;9.974;2022-10-31T22:02:32;101575.44;;;13.28;100.00
31062;BME280;17724;53.546;9.974;2022-10-31T22:06:34;101564.53;;;13.38;100.00
31062;BME280;17724;53.546;9.974;2022-10-31T22:10:34;101565.19;;;13.23;100.00
31062;BME280;17724;53.546;9.974;2022-10-31T22:14:35;101549.09;;;13.20;100.00
31062;BME280;17724;53.546;9.974;2022-10-31T22:18:36;101535.88;;;13.22;100.00
31062;BME280;17724;53.546;9.974;2022-10-31T22:22:37;101525.13;;;13.04;100.00
31062;BME280;17724;53.546;9.974;2022-10-31T22:26:38;101518.28;;;13.06;100.00
31062;BME280;17724;53.546;9.974;2022-10-31T22:30:38;101504.47;;;13.06;100.00
31062;BME280;17724;53.546;9.974;2022-10-31T22:34:39;101496.13;;;13.01;100.00
31062;BME280;17724;53.546;9.974;2022-10-31T22:38:40;101506.72;;;13.10;100.00
31062;BME280;17724;53.546;9.974;2022-10-31T22:42:40;101510.63;;;13.14;100.00